Terminal Aerodrome Forecast
Issued by NWS Austin/San Antonio, TX

Home | Current Version | Previous Version | Text Only | Print | Product List | Glossary On
Versions: 1 2 3 4 5 6 7 8 9 10 11 12 13 14 15 16 17 18 19 20
435
FTUS44 KEWX 290540
TAFAUS
TAF
KAUS 290540Z 2906/3012 15013KT P6SM BKN018
     FM291900 18010KT P6SM VCSH BKN035
     FM300200 34018G28KT P6SM SHRA BKN035
      TEMPO 3002/3005 TSRA BKN035CB
     FM300600 35012KT P6SM SCT025 BKN070=

USA.gov is the U.S. government's official web portal to all federal, state and local government web resources and services.